sensor_id;sensor_type;location;lat;lon;timestamp;pressure;altitude;pressure_sealevel;temperature;humidity
42601;BME280;28229;48.856;9.088;2023-01-28T00:00:09;98529.38;;;-0.54;86.15
42601;BME280;28229;48.856;9.088;2023-01-28T00:02:35;98522.03;;;-0.49;86.23
42601;BME280;28229;48.856;9.088;2023-01-28T00:05:02;98524.50;;;-0.48;86.06
42601;BME280;28229;48.856;9.088;2023-01-28T00:07:29;98527.59;;;-0.54;86.00
42601;BME280;28229;48.856;9.088;2023-01-28T00:09:55;98517.69;;;-0.49;86.03
42601;BME280;28229;48.856;9.088;2023-01-28T00:12:21;98528.03;;;-0.49;85.93
42601;BME280;28229;48.856;9.088;2023-01-28T00:14:47;98523.66;;;-0.58;86.42
42601;BME280;28229;48.856;9.088;2023-01-28T00:17:13;98524.75;;;-0.51;87.02
42601;BME280;28229;48.856;9.088;2023-01-28T00:19:40;98524.50;;;-0.48;86.22
42601;BME280;28229;48.856;9.088;2023-01-28T00:22:06;98531.03;;;-0.53;86.51
42601;BME280;28229;48.856;9.088;2023-01-28T00:24:32;98535.34;;;-0.54;86.67
42601;BME280;28229;48.856;9.088;2023-01-28T00:26:58;98528.56;;;-0.55;87.01
42601;BME280;28229;48.856;9.088;2023-01-28T00:29:25;98531.41;;;-0.48;86.73
42601;BME280;28229;48.856;9.088;2023-01-28T00:31:51;98528.72;;;-0.47;86.74
42601;BME280;28229;48.856;9.088;2023-01-28T00:34:17;98525.75;;;-0.42;86.85
42601;BME280;28229;48.856;9.088;2023-01-28T00:36:43;98527.41;;;-0.31;86.43
42601;BME280;28229;48.856;9.088;2023-01-28T00:39:13;98524.56;;;-0.28;86.50
42601;BME280;28229;48.856;9.088;2023-01-28T00:41:41;98519.91;;;-0.34;86.97
42601;BME280;28229;48.856;9.088;2023-01-28T00:44:08;98511.50;;;-0.27;87.04
42601;BME280;28229;48.856;9.088;2023-01-28T00:46:35;98516.06;;;-0.40;87.07
42601;BME280;28229;48.856;9.088;2023-01-28T00:49:01;98513.06;;;-0.45;87.30
42601;BME280;28229;48.856;9.088;2023-01-28T00:51:27;98514.44;;;-0.41;87.22
42601;BME280;28229;48.856;9.088;2023-01-28T00:53:54;98513.63;;;-0.42;87.14
42601;BME280;28229;48.856;9.088;2023-01-28T00:56:20;98515.53;;;-0.44;87.39
42601;BME280;28229;48.856;9.088;2023-01-28T00:58:46;98517.44;;;-0.46;87.61
42601;BME280;28229;48.856;9.088;2023-01-28T01:01:18;98514.16;;;-0.48;87.59
42601;BME280;28229;48.856;9.088;2023-01-28T01:03:45;98512.09;;;-0.54;87.94
42601;BME280;28229;48.856;9.088;2023-01-28T01:06:14;98513.06;;;-0.45;87.79
42601;BME280;28229;48.856;9.088;2023-01-28T01:08:41;98509.69;;;-0.46;87.57
42601;BME280;28229;48.856;9.088;2023-01-28T01:11:09;98509.09;;;-0.59;88.32
42601;BME280;28229;48.856;9.088;2023-01-28T01:13:36;98511.28;;;-0.45;88.04
42601;BME280;28229;48.856;9.088;2023-01-28T01:16:07;98510.47;;;-0.45;87.99
42601;BME280;28229;48.856;9.088;2023-01-28T01:18:35;98520.56;;;-0.42;88.35
42601;BME280;28229;48.856;9.088;2023-01-28T01:21:07;98516.63;;;-0.46;88.53
42601;BME280;28229;48.856;9.088;2023-01-28T01:23:34;98517.00;;;-0.51;88.41
42601;BME280;28229;48.856;9.088;2023-01-28T01:26:00;98521.38;;;-0.42;88.30
42601;BME280;28229;48.856;9.088;2023-01-28T01:28:28;98521.53;;;-0.33;88.45
42601;BME280;28229;48.856;9.088;2023-01-28T01:31:14;98527.22;;;-0.40;88.36
42601;BME280;28229;48.856;9.088;2023-01-28T01:33:44;98530.78;;;-0.41;88.06
42601;BME280;28229;48.856;9.088;2023-01-28T01:36:11;98526.53;;;-0.51;88.23
42601;BME280;28229;48.856;9.088;2023-01-28T01:38:39;98530.88;;;-0.52;88.69
42601;BME280;28229;48.856;9.088;2023-01-28T01:41:07;98529.69;;;-0.48;88.50
42601;BME280;28229;48.856;9.088;2023-01-28T01:43:48;98528.03;;;-0.49;88.60
42601;BME280;28229;48.856;9.088;2023-01-28T01:46:20;98525.69;;;-0.52;88.97
42601;BME280;28229;48.856;9.088;2023-01-28T01:48:47;98532.66;;;-0.52;88.64
42601;BME280;28229;48.856;9.088;2023-01-28T01:51:18;98541.22;;;-0.52;88.54
42601;BME280;28229;48.856;9.088;2023-01-28T01:53:49;98533.56;;;-0.63;89.26
42601;BME280;28229;48.856;9.088;2023-01-28T01:56:20;98539.03;;;-0.56;89.11
42601;BME280;28229;48.856;9.088;2023-01-28T01:58:52;98535.91;;;-0.60;89.54
42601;BME280;28229;48.856;9.088;2023-01-28T02:01:22;98532.22;;;-0.58;89.38
42601;BME280;28229;48.856;9.088;2023-01-28T02:04:09;98533.59;;;-0.53;89.27
42601;BME280;28229;48.856;9.088;2023-01-28T02:06:38;98525.56;;;-0.60;89.16
42601;BME280;28229;48.856;9.088;2023-01-28T02:09:28;98526.06;;;-0.66;89.45
42601;BME280;28229;48.856;9.088;2023-01-28T02:12:01;98527.47;;;-0.52;89.78
42601;BME280;28229;48.856;9.088;2023-01-28T02:14:31;98533.19;;;-0.59;89.68
42601;BME280;28229;48.856;9.088;2023-01-28T02:17:00;98527.47;;;-0.62;89.53
42601;BME280;28229;48.856;9.088;2023-01-28T02:19:42;98527.19;;;-0.59;89.71
42601;BME280;28229;48.856;9.088;2023-01-28T02:22:14;98531.56;;;-0.50;89.63
42601;BME280;28229;48.856;9.088;2023-01-28T02:30:21;98530.88;;;-0.52;89.11
42601;BME280;28229;48.856;9.088;2023-01-28T02:33:03;98532.09;;;-0.56;89.42
42601;BME280;28229;48.856;9.088;2023-01-28T02:35:37;98533.06;;;-0.57;89.77
42601;BME280;28229;48.856;9.088;2023-01-28T02:38:19;98528.81;;;-0.58;90.03
42601;BME280;28229;48.856;9.088;2023-01-28T02:40:52;98540.28;;;-0.51;89.82
42601;BME280;28229;48.856;9.088;2023-01-28T02:43:49;98542.16;;;-0.53;89.85
42601;BME280;28229;48.856;9.088;2023-01-28T02:49:11;98536.75;;;-0.50;89.88
42601;BME280;28229;48.856;9.088;2023-01-28T02:51:49;98540.81;;;-0.57;90.01
42601;BME280;28229;48.856;9.088;2023-01-28T02:54:27;98548.69;;;-0.59;90.35
42601;BME280;28229;48.856;9.088;2023-01-28T02:57:06;98543.09;;;-0.64;90.47
42601;BME280;28229;48.856;9.088;2023-01-28T02:59:53;98544.84;;;-0.64;90.94
42601;BME280;28229;48.856;9.088;2023-01-28T03:02:36;98550.84;;;-0.64;90.74
42601;BME280;28229;48.856;9.088;2023-01-28T03:05:19;98549.31;;;-0.66;91.52
42601;BME280;28229;48.856;9.088;2023-01-28T03:07:48;98548.69;;;-0.59;91.42
42601;BME280;28229;48.856;9.088;2023-01-28T03:10:19;98548.81;;;-0.60;91.84
42601;BME280;28229;48.856;9.088;2023-01-28T03:12:49;98539.84;;;-0.56;91.54
42601;BME280;28229;48.856;9.088;2023-01-28T03:15:40;98550.16;;;-0.66;92.24
42601;BME280;28229;48.856;9.088;2023-01-28T03:18:44;98551.81;;;-0.55;91.83
42601;BME280;28229;48.856;9.088;2023-01-28T03:21:33;98549.50;;;-0.58;91.87
42601;BME280;28229;48.856;9.088;2023-01-28T03:24:24;98555.78;;;-0.51;91.73
42601;BME280;28229;48.856;9.088;2023-01-28T03:27:15;98548.03;;;-0.51;92.04
42601;BME280;28229;48.856;9.088;2023-01-28T03:30:14;98552.50;;;-0.53;92.27
42601;BME280;28229;48.856;9.088;2023-01-28T03:33:08;98555.44;;;-0.67;92.79
42601;BME280;28229;48.856;9.088;2023-01-28T03:35:54;98548.41;;;-0.55;92.40
42601;BME280;28229;48.856;9.088;2023-01-28T03:38:41;98556.47;;;-0.49;92.38
42601;BME280;28229;48.856;9.088;2023-01-28T03:41:20;98560.25;;;-0.53;92.25
42601;BME280;28229;48.856;9.088;2023-01-28T03:43:47;98558.19;;;-0.59;92.61
42601;BME280;28229;48.856;9.088;2023-01-28T03:46:14;98561.06;;;-0.52;92.94
42601;BME280;28229;48.856;9.088;2023-01-28T03:48:40;98566.25;;;-0.52;92.78
42601;BME280;28229;48.856;9.088;2023-01-28T03:51:08;98560.69;;;-0.48;92.79
42601;BME280;28229;48.856;9.088;2023-01-28T03:53:34;98562.31;;;-0.47;93.05
42601;BME280;28229;48.856;9.088;2023-01-28T03:56:00;98568.59;;;-0.40;92.65
42601;BME280;28229;48.856;9.088;2023-01-28T03:58:27;98562.59;;;-0.40;92.53
42601;BME280;28229;48.856;9.088;2023-01-28T04:01:12;98559.09;;;-0.39;92.52
42601;BME280;28229;48.856;9.088;2023-01-28T04:03:39;98564.53;;;-0.32;92.59
42601;BME280;28229;48.856;9.088;2023-01-28T04:06:11;98566.19;;;-0.31;92.37
42601;BME280;28229;48.856;9.088;2023-01-28T04:08:57;98560.56;;;-0.36;92.49
42601;BME280;28229;48.856;9.088;2023-01-28T04:11:32;98564.28;;;-0.29;92.61
42601;BME280;28229;48.856;9.088;2023-01-28T04:14:01;98565.31;;;-0.42;92.68
42601;BME280;28229;48.856;9.088;2023-01-28T04:16:38;98566.44;;;-0.34;92.49
42601;BME280;28229;48.856;9.088;2023-01-28T04:19:04;98573.38;;;-0.25;92.16
42601;BME280;28229;48.856;9.088;2023-01-28T04:21:31;98573.94;;;-0.31;92.19
42601;BME280;28229;48.856;9.088;2023-01-28T04:23:59;98570.53;;;-0.32;91.94
42601;BME280;28229;48.856;9.088;2023-01-28T04:26:27;98575.03;;;-0.24;91.93
42601;BME280;28229;48.856;9.088;2023-01-28T04:28:53;98580.75;;;-0.30;92.26
42601;BME280;28229;48.856;9.088;2023-01-28T04:31:20;98579.66;;;-0.28;92.78
42601;BME280;28229;48.856;9.088;2023-01-28T04:34:12;98586.06;;;-0.32;93.05
42601;BME280;28229;48.856;9.088;2023-01-28T04:36:48;98579.53;;;-0.26;93.25
42601;BME280;28229;48.856;9.088;2023-01-28T04:39:39;98583.06;;;-0.27;93.04
42601;BME280;28229;48.856;9.088;2023-01-28T04:42:15;98583.84;;;-0.36;93.40
42601;BME280;28229;48.856;9.088;2023-01-28T04:44:54;98586.81;;;-0.41;94.03
42601;BME280;28229;48.856;9.088;2023-01-28T04:47:52;98599.25;;;-0.25;93.75
42601;BME280;28229;48.856;9.088;2023-01-28T04:50:29;98601.06;;;-0.16;96.01
42601;BME280;28229;48.856;9.088;2023-01-28T04:53:19;98600.53;;;-0.10;96.75
42601;BME280;28229;48.856;9.088;2023-01-28T04:55:56;98599.16;;;-0.14;96.67
42601;BME280;28229;48.856;9.088;2023-01-28T04:58:23;98594.66;;;-0.12;95.76
42601;BME280;28229;48.856;9.088;2023-01-28T05:00:54;98598.88;;;-0.11;96.57
42601;BME280;28229;48.856;9.088;2023-01-28T05:03:21;98596.84;;;-0.07;96.75
42601;BME280;28229;48.856;9.088;2023-01-28T05:05:48;98598.31;;;-0.24;95.39
42601;BME280;28229;48.856;9.088;2023-01-28T05:08:22;98602.81;;;-0.16;96.59
42601;BME280;28229;48.856;9.088;2023-01-28T05:10:48;98609.50;;;-0.14;96.60
42601;BME280;28229;48.856;9.088;2023-01-28T05:13:14;98605.41;;;-0.16;96.19
42601;BME280;28229;48.856;9.088;2023-01-28T05:15:41;98607.06;;;-0.15;96.40
42601;BME280;28229;48.856;9.088;2023-01-28T05:18:07;98614.09;;;-0.27;96.19
42601;BME280;28229;48.856;9.088;2023-01-28T05:20:39;98603.22;;;-0.21;97.12
42601;BME280;28229;48.856;9.088;2023-01-28T05:23:06;98607.84;;;-0.15;96.76
42601;BME280;28229;48.856;9.088;2023-01-28T05:25:41;98609.75;;;-0.27;96.34
42601;BME280;28229;48.856;9.088;2023-01-28T05:28:08;98610.00;;;-0.20;96.49
42601;BME280;28229;48.856;9.088;2023-01-28T05:30:34;98607.72;;;-0.23;96.62
42601;BME280;28229;48.856;9.088;2023-01-28T05:33:01;98602.38;;;-0.22;97.18
42601;BME280;28229;48.856;9.088;2023-01-28T05:35:27;98609.50;;;-0.14;97.98
42601;BME280;28229;48.856;9.088;2023-01-28T05:37:53;98614.25;;;-0.19;97.49
42601;BME280;28229;48.856;9.088;2023-01-28T05:40:19;98615.88;;;-0.18;98.17
42601;BME280;28229;48.856;9.088;2023-01-28T05:42:46;98616.03;;;-0.10;97.87
42601;BME280;28229;48.856;9.088;2023-01-28T05:45:41;98619.31;;;-0.08;97.77
42601;BME280;28229;48.856;9.088;2023-01-28T05:48:11;98614.44;;;-0.01;98.30
42601;BME280;28229;48.856;9.088;2023-01-28T05:50:46;98608.97;;;-0.08;97.67
42601;BME280;28229;48.856;9.088;2023-01-28T05:53:20;98613.03;;;-0.15;98.47
42601;BME280;28229;48.856;9.088;2023-01-28T05:55:49;98613.75;;;-0.03;99.15
42601;BME280;28229;48.856;9.088;2023-01-28T05:58:16;98609.00;;;0.02;98.60
42601;BME280;28229;48.856;9.088;2023-01-28T06:00:42;98612.13;;;0.06;98.35
42601;BME280;28229;48.856;9.088;2023-01-28T06:03:08;98625.75;;;0.08;98.39
42601;BME280;28229;48.856;9.088;2023-01-28T06:05:36;98619.91;;;0.06;97.53
42601;BME280;28229;48.856;9.088;2023-01-28T06:08:02;98624.28;;;0.15;97.54
42601;BME280;28229;48.856;9.088;2023-01-28T06:10:29;98623.59;;;0.13;98.22
42601;BME280;28229;48.856;9.088;2023-01-28T06:12:55;98631.22;;;0.14;98.41
42601;BME280;28229;48.856;9.088;2023-01-28T06:15:40;98635.03;;;0.20;98.54
42601;BME280;28229;48.856;9.088;2023-01-28T06:18:16;98638.56;;;0.19;98.81
42601;BME280;28229;48.856;9.088;2023-01-28T06:20:42;98650.97;;;0.25;98.54
42601;BME280;28229;48.856;9.088;2023-01-28T06:23:09;98647.44;;;0.16;97.56
42601;BME280;28229;48.856;9.088;2023-01-28T06:25:35;98654.34;;;0.16;98.37
42601;BME280;28229;48.856;9.088;2023-01-28T06:28:08;98652.88;;;0.23;97.66
42601;BME280;28229;48.856;9.088;2023-01-28T06:30:34;98655.50;;;0.62;100.00
42601;BME280;28229;48.856;9.088;2023-01-28T06:33:00;98655.50;;;0.82;98.63
42601;BME280;28229;48.856;9.088;2023-01-28T06:35:27;98652.91;;;0.82;96.01
42601;BME280;28229;48.856;9.088;2023-01-28T06:37:53;98658.09;;;0.91;95.03
42601;BME280;28229;48.856;9.088;2023-01-28T06:40:19;98660.97;;;0.79;92.76
42601;BME280;28229;48.856;9.088;2023-01-28T06:42:48;98663.97;;;0.64;92.52
42601;BME280;28229;48.856;9.088;2023-01-28T06:45:14;98668.03;;;0.47;93.57
42601;BME280;28229;48.856;9.088;2023-01-28T06:47:41;98669.81;;;0.47;94.54
42601;BME280;28229;48.856;9.088;2023-01-28T06:50:07;98663.16;;;0.54;95.07
42601;BME280;28229;48.856;9.088;2023-01-28T06:52:34;98676.59;;;0.48;94.29
42601;BME280;28229;48.856;9.088;2023-01-28T06:55:00;98673.59;;;0.43;94.21
42601;BME280;28229;48.856;9.088;2023-01-28T06:57:26;98688.59;;;0.39;94.85
42601;BME280;28229;48.856;9.088;2023-01-28T06:59:52;98683.69;;;0.46;95.82
42601;BME280;28229;48.856;9.088;2023-01-28T07:02:18;98687.50;;;0.42;95.59
42601;BME280;28229;48.856;9.088;2023-01-28T07:04:45;98686.16;;;0.47;96.27
42601;BME280;28229;48.856;9.088;2023-01-28T07:07:11;98688.06;;;0.55;96.41
42601;BME280;28229;48.856;9.088;2023-01-28T07:09:37;98690.09;;;0.51;95.63
42601;BME280;28229;48.856;9.088;2023-01-28T07:12:04;98693.38;;;0.44;95.76
42601;BME280;28229;48.856;9.088;2023-01-28T07:14:31;98690.50;;;0.37;96.35
42601;BME280;28229;48.856;9.088;2023-01-28T07:16:57;98694.31;;;0.43;96.72
42601;BME280;28229;48.856;9.088;2023-01-28T07:19:23;98703.88;;;0.52;96.66
42601;BME280;28229;48.856;9.088;2023-01-28T07:21:49;98705.50;;;0.53;96.52
42601;BME280;28229;48.856;9.088;2023-01-28T07:24:16;98699.09;;;0.57;96.82
42601;BME280;28229;48.856;9.088;2023-01-28T07:26:42;98701.97;;;0.64;97.24
42601;BME280;28229;48.856;9.088;2023-01-28T07:29:08;98701.44;;;0.60;97.00
42601;BME280;28229;48.856;9.088;2023-01-28T07:31:34;98699.41;;;0.54;97.05
42601;BME280;28229;48.856;9.088;2023-01-28T07:34:01;98701.69;;;0.57;97.05
42601;BME280;28229;48.856;9.088;2023-01-28T07:36:27;98708.13;;;0.63;96.93
42601;BME280;28229;48.856;9.088;2023-01-28T07:38:53;98703.63;;;0.65;96.91
42601;BME280;28229;48.856;9.088;2023-01-28T07:41:19;98717.94;;;0.69;97.42
42601;BME280;28229;48.856;9.088;2023-01-28T07:43:45;98713.44;;;0.61;97.01
42601;BME280;28229;48.856;9.088;2023-01-28T07:46:12;98717.50;;;0.54;96.59
42601;BME280;28229;48.856;9.088;2023-01-28T07:48:38;98717.22;;;0.57;97.96
42601;BME280;28229;48.856;9.088;2023-01-28T07:51:05;98724.44;;;0.53;97.92
42601;BME280;28229;48.856;9.088;2023-01-28T07:53:32;98721.16;;;0.51;98.35
42601;BME280;28229;48.856;9.088;2023-01-28T07:55:59;98727.56;;;0.47;98.82
42601;BME280;28229;48.856;9.088;2023-01-28T07:58:26;98727.72;;;0.46;98.69
42601;BME280;28229;48.856;9.088;2023-01-28T08:00:57;98731.66;;;0.50;99.35
42601;BME280;28229;48.856;9.088;2023-01-28T08:03:24;98723.78;;;0.61;99.36
42601;BME280;28229;48.856;9.088;2023-01-28T08:05:52;98733.31;;;0.61;99.15
42601;BME280;28229;48.856;9.088;2023-01-28T08:08:18;98733.84;;;0.54;98.91
42601;BME280;28229;48.856;9.088;2023-01-28T08:10:45;98735.09;;;0.60;99.62
42601;BME280;28229;48.856;9.088;2023-01-28T08:13:12;98727.06;;;0.63;99.79
42601;BME280;28229;48.856;9.088;2023-01-28T08:15:39;98730.34;;;0.65;99.93
42601;BME280;28229;48.856;9.088;2023-01-28T08:18:07;98734.44;;;0.68;100.00
42601;BME280;28229;48.856;9.088;2023-01-28T08:20:34;98741.78;;;0.72;99.73
42601;BME280;28229;48.856;9.088;2023-01-28T08:23:05;98740.81;;;0.64;99.24
42601;BME280;28229;48.856;9.088;2023-01-28T08:25:32;98738.25;;;0.73;99.83
42601;BME280;28229;48.856;9.088;2023-01-28T08:27:58;98744.94;;;0.66;99.06
42601;BME280;28229;48.856;9.088;2023-01-28T08:30:24;98741.09;;;0.80;100.00
42601;BME280;28229;48.856;9.088;2023-01-28T08:32:54;98741.81;;;0.92;100.00
42601;BME280;28229;48.856;9.088;2023-01-28T08:35:20;98748.09;;;0.99;99.94
42601;BME280;28229;48.856;9.088;2023-01-28T08:37:47;98750.28;;;1.04;99.23
42601;BME280;28229;48.856;9.088;2023-01-28T08:40:13;98751.63;;;1.08;98.75
42601;BME280;28229;48.856;9.088;2023-01-28T08:42:39;98744.53;;;1.10;98.29
42601;BME280;28229;48.856;9.088;2023-01-28T08:45:11;98745.63;;;1.17;98.35
42601;BME280;28229;48.856;9.088;2023-01-28T08:47:53;98741.00;;;1.21;98.56
42601;BME280;28229;48.856;9.088;2023-01-28T08:50:21;98741.78;;;1.21;97.95
42601;BME280;28229;48.856;9.088;2023-01-28T08:52:48;98748.09;;;1.19;97.55
42601;BME280;28229;48.856;9.088;2023-01-28T08:55:15;98745.22;;;1.12;97.77
42601;BME280;28229;48.856;9.088;2023-01-28T08:57:41;98743.16;;;1.16;97.81
42601;BME280;28229;48.856;9.088;2023-01-28T09:00:08;98742.91;;;1.19;97.10
42601;BME280;28229;48.856;9.088;2023-01-28T09:02:36;98749.19;;;1.16;97.16
42601;BME280;28229;48.856;9.088;2023-01-28T09:05:04;98751.09;;;1.24;97.63
42601;BME280;28229;48.856;9.088;2023-01-28T09:07:32;98748.91;;;1.29;97.02
42601;BME280;28229;48.856;9.088;2023-01-28T09:09:59;98750.25;;;1.33;96.92
42601;BME280;28229;48.856;9.088;2023-01-28T09:12:25;98748.91;;;1.29;95.84
42601;BME280;28229;48.856;9.088;2023-01-28T09:14:52;98751.91;;;1.34;96.65
42601;BME280;28229;48.856;9.088;2023-01-28T09:17:19;98754.50;;;1.34;94.80
42601;BME280;28229;48.856;9.088;2023-01-28T09:19:46;98764.88;;;1.34;95.18
42601;BME280;28229;48.856;9.088;2023-01-28T09:22:12;98770.72;;;1.36;95.46
42601;BME280;28229;48.856;9.088;2023-01-28T09:24:38;98770.19;;;1.32;95.17
42601;BME280;28229;48.856;9.088;2023-01-28T09:27:04;98772.34;;;1.37;95.73
42601;BME280;28229;48.856;9.088;2023-01-28T09:29:33;98774.13;;;1.17;94.35
42601;BME280;28229;48.856;9.088;2023-01-28T09:31:59;98775.50;;;1.11;94.54
42601;BME280;28229;48.856;9.088;2023-01-28T09:34:25;98778.91;;;1.12;94.88
42601;BME280;28229;48.856;9.088;2023-01-28T09:36:53;98782.34;;;1.12;95.25
42601;BME280;28229;48.856;9.088;2023-01-28T09:39:19;98778.34;;;1.08;94.89
42601;BME280;28229;48.856;9.088;2023-01-28T09:41:58;98781.78;;;1.19;95.49
42601;BME280;28229;48.856;9.088;2023-01-28T09:47:01;98789.81;;;1.16;95.22
42601;BME280;28229;48.856;9.088;2023-01-28T09:49:42;98802.66;;;1.07;94.73
42601;BME280;28229;48.856;9.088;2023-01-28T09:52:15;98795.00;;;1.06;94.62
42601;BME280;28229;48.856;9.088;2023-01-28T09:55:29;98802.09;;;1.04;95.15
42601;BME280;28229;48.856;9.088;2023-01-28T09:57:39;98796.59;;;0.87;95.10
42601;BME280;28229;48.856;9.088;2023-01-28T10:00:29;98797.56;;;0.96;94.75
42601;BME280;28229;48.856;9.088;2023-01-28T10:08:21;98804.97;;;1.30;95.27
42601;BME280;28229;48.856;9.088;2023-01-28T10:11:01;98795.84;;;1.26;94.08
42601;BME280;28229;48.856;9.088;2023-01-28T10:19:02;98788.47;;;1.50;94.05
42601;BME280;28229;48.856;9.088;2023-01-28T10:21:39;98785.72;;;1.42;92.35
42601;BME280;28229;48.856;9.088;2023-01-28T10:24:18;98777.41;;;1.48;92.79
42601;BME280;28229;48.856;9.088;2023-01-28T10:26:49;98785.72;;;1.42;93.01
42601;BME280;28229;48.856;9.088;2023-01-28T10:29:22;98784.25;;;1.40;93.24
42601;BME280;28229;48.856;9.088;2023-01-28T10:31:53;98784.34;;;1.48;93.71
42601;BME280;28229;48.856;9.088;2023-01-28T10:34:21;98777.53;;;1.57;93.93
42601;BME280;28229;48.856;9.088;2023-01-28T10:36:48;98774.13;;;1.66;93.90
42601;BME280;28229;48.856;9.088;2023-01-28T10:39:16;98778.59;;;1.74;93.25
42601;BME280;28229;48.856;9.088;2023-01-28T10:41:43;98774.03;;;1.85;93.32
42601;BME280;28229;48.856;9.088;2023-01-28T10:44:25;98769.56;;;1.87;92.46
42601;BME280;28229;48.856;9.088;2023-01-28T10:46:56;98767.59;;;1.99;90.87
42601;BME280;28229;48.856;9.088;2023-01-28T10:49:29;98770.91;;;1.92;90.27
42601;BME280;28229;48.856;9.088;2023-01-28T10:51:56;98774.84;;;1.96;90.77
42601;BME280;28229;48.856;9.088;2023-01-28T10:54:25;98778.78;;;2.09;90.67
42601;BME280;28229;48.856;9.088;2023-01-28T10:57:01;98778.75;;;2.19;89.87
42601;BME280;28229;48.856;9.088;2023-01-28T10:59:30;98781.03;;;2.22;89.84
42601;BME280;28229;48.856;9.088;2023-01-28T11:02:00;98777.56;;;2.32;89.17
42601;BME280;28229;48.856;9.088;2023-01-28T11:04:30;98773.63;;;2.27;87.84
42601;BME280;28229;48.856;9.088;2023-01-28T11:09:32;98780.81;;;2.06;87.94
42601;BME280;28229;48.856;9.088;2023-01-28T11:12:24;98777.38;;;2.15;89.00
42601;BME280;28229;48.856;9.088;2023-01-28T11:14:57;98779.88;;;2.07;89.03
42601;BME280;28229;48.856;9.088;2023-01-28T11:17:26;98776.53;;;1.77;88.49
42601;BME280;28229;48.856;9.088;2023-01-28T11:19:55;98781.00;;;1.95;89.17
42601;BME280;28229;48.856;9.088;2023-01-28T11:22:34;98782.53;;;1.87;88.43
42601;BME280;28229;48.856;9.088;2023-01-28T11:27:51;98782.09;;;2.02;88.42
42601;BME280;28229;48.856;9.088;2023-01-28T11:30:27;98778.00;;;1.89;87.84
42601;BME280;28229;48.856;9.088;2023-01-28T11:32:56;98781.00;;;1.95;88.45
42601;BME280;28229;48.856;9.088;2023-01-28T11:35:27;98780.34;;;1.93;88.55
42601;BME280;28229;48.856;9.088;2023-01-28T11:37:59;98780.16;;;1.94;88.31
42601;BME280;28229;48.856;9.088;2023-01-28T11:40:26;98780.22;;;1.75;87.70
42601;BME280;28229;48.856;9.088;2023-01-28T11:42:53;98785.72;;;1.42;87.43
42601;BME280;28229;48.856;9.088;2023-01-28T11:48:35;98786.78;;;1.79;89.48
42601;BME280;28229;48.856;9.088;2023-01-28T11:51:58;98778.59;;;1.64;89.39
42601;BME280;28229;48.856;9.088;2023-01-28T12:10:08;98789.97;;;2.10;94.56
42601;BME280;28229;48.856;9.088;2023-01-28T12:12:48;98784.00;;;1.90;87.63
42601;BME280;28229;48.856;9.088;2023-01-28T12:21:03;98796.38;;;1.00;93.58
42601;BME280;28229;48.856;9.088;2023-01-28T12:42:41;98799.75;;;0.41;100.00
42601;BME280;28229;48.856;9.088;2023-01-28T12:45:14;98793.41;;;0.45;100.00
42601;BME280;28229;48.856;9.088;2023-01-28T12:47:49;98784.50;;;0.37;100.00
42601;BME280;28229;48.856;9.088;2023-01-28T12:50:37;98791.28;;;0.29;100.00
42601;BME280;28229;48.856;9.088;2023-01-28T12:55:53;98786.38;;;0.26;100.00
42601;BME280;28229;48.856;9.088;2023-01-28T12:58:24;98785.56;;;0.25;100.00
42601;BME280;28229;48.856;9.088;2023-01-28T13:01:02;98786.94;;;0.29;100.00
42601;BME280;28229;48.856;9.088;2023-01-28T13:03:42;98785.00;;;0.22;100.00
42601;BME280;28229;48.856;9.088;2023-01-28T13:06:18;98774.38;;;0.25;100.00
42601;BME280;28229;48.856;9.088;2023-01-28T13:08:51;98776.69;;;0.18;100.00
42601;BME280;28229;48.856;9.088;2023-01-28T13:11:22;98777.38;;;0.20;100.00
42601;BME280;28229;48.856;9.088;2023-01-28T13:13:48;98778.00;;;0.12;100.00
42601;BME280;28229;48.856;9.088;2023-01-28T13:16:15;98776.41;;;0.21;100.00
42601;BME280;28229;48.856;9.088;2023-01-28T13:21:36;98780.63;;;0.22;100.00
42601;BME280;28229;48.856;9.088;2023-01-28T13:26:52;98782.75;;;0.07;100.00
42601;BME280;28229;48.856;9.088;2023-01-28T13:29:32;98781.13;;;0.16;100.00
42601;BME280;28229;48.856;9.088;2023-01-28T13:32:00;98784.44;;;0.18;100.00
42601;BME280;28229;48.856;9.088;2023-01-28T13:34:35;98792.59;;;0.23;100.00
42601;BME280;28229;48.856;9.088;2023-01-28T13:37:14;98798.56;;;0.14;100.00
42601;BME280;28229;48.856;9.088;2023-01-28T13:39:57;98786.50;;;0.24;100.00
42601;BME280;28229;48.856;9.088;2023-01-28T13:42:29;98791.50;;;0.16;100.00
42601;BME280;28229;48.856;9.088;2023-01-28T13:45:29;98790.44;;;0.18;100.00
42601;BME280;28229;48.856;9.088;2023-01-28T13:48:14;98797.78;;;0.23;100.00
42601;BME280;28229;48.856;9.088;2023-01-28T13:50:44;98794.44;;;0.32;100.00
42601;BME280;28229;48.856;9.088;2023-01-28T13:54:16;98798.75;;;0.22;100.00
42601;BME280;28229;48.856;9.088;2023-01-28T13:56:27;98803.69;;;0.25;100.00
42601;BME280;28229;48.856;9.088;2023-01-28T14:02:52;98801.50;;;0.30;99.47
42601;BME280;28229;48.856;9.088;2023-01-28T14:10:10;98814.44;;;0.30;98.56
42601;BME280;28229;48.856;9.088;2023-01-28T14:12:57;98807.38;;;0.32;98.67
42601;BME280;28229;48.856;9.088;2023-01-28T14:18:22;98812.72;;;0.41;98.01
42601;BME280;28229;48.856;9.088;2023-01-28T14:20:52;98809.63;;;0.47;97.11
42601;BME280;28229;48.856;9.088;2023-01-28T14:23:20;98815.72;;;0.46;96.92
42601;BME280;28229;48.856;9.088;2023-01-28T14:26:00;98829.22;;;0.40;97.01
42601;BME280;28229;48.856;9.088;2023-01-28T14:31:36;98823.81;;;0.52;96.12
42601;BME280;28229;48.856;9.088;2023-01-28T14:34:10;98829.53;;;0.56;95.95
42601;BME280;28229;48.856;9.088;2023-01-28T14:36:43;98821.09;;;0.54;95.76
42601;BME280;28229;48.856;9.088;2023-01-28T14:39:16;98833.25;;;0.63;95.36
42601;BME280;28229;48.856;9.088;2023-01-28T14:41:45;98839.88;;;0.56;95.27
42601;BME280;28229;48.856;9.088;2023-01-28T14:44:35;98841.13;;;0.62;95.02
42601;BME280;28229;48.856;9.088;2023-01-28T14:53:23;98843.97;;;0.59;95.22
42601;BME280;28229;48.856;9.088;2023-01-28T14:56:00;98848.78;;;0.63;94.44
42601;BME280;28229;48.856;9.088;2023-01-28T14:58:51;98851.38;;;0.63;93.79
42601;BME280;28229;48.856;9.088;2023-01-28T15:01:24;98853.78;;;0.55;93.50
42601;BME280;28229;48.856;9.088;2023-01-28T15:03:50;98846.19;;;0.63;92.97
42601;BME280;28229;48.856;9.088;2023-01-28T15:06:19;98854.88;;;0.52;92.30
42601;BME280;28229;48.856;9.088;2023-01-28T15:08:46;98855.44;;;0.56;92.52